Time;durP1;ratioP1;P1;durP2;ratioP2;P2;SDS_P1;SDS_P2;PMS_P1;PMS_P2;Temp;Humidity;BMP_temperature;BMP_pressure;BME280_temperature;BME280_humidity;BME280_pressure;Samples;Min_cycle;Max_cycle;Signal;HPM_P1;HPM_P2
2021/09/18 00:01:15;;;;;;;2.65;1.20;;;14.70;99.90;;;15.20;76.81;100931.25;5114223;28;20179;-70
2021/09/18 00:03:42;;;;;;;3.53;1.00;;;14.70;99.90;;;15.21;77.09;100930.28;5113063;28;20214;-70
2021/09/18 00:06:08;;;;;;;3.80;1.27;;;14.70;99.90;;;15.19;77.01;100929.56;5114309;28;20251;-70
2021/09/18 00:08:35;;;;;;;5.32;1.35;;;14.70;99.90;;;15.18;77.30;100927.81;5114448;28;20191;-71
2021/09/18 00:11:02;;;;;;;4.18;1.20;;;14.70;99.90;;;15.18;77.44;100935.72;5112803;28;20183;-70
2021/09/18 00:13:32;;;;;;;2.90;1.00;;;14.70;99.90;;;15.18;77.23;100938.38;5114675;28;20547;-70
2021/09/18 00:15:59;;;;;;;2.80;1.00;;;14.60;99.90;;;15.18;77.38;100938.38;5115065;28;20218;-69
2021/09/18 00:18:25;;;;;;;2.78;1.05;;;14.70;99.90;;;15.17;77.56;100937.50;5113344;28;20186;-69
2021/09/18 00:20:52;;;;;;;4.53;1.20;;;14.70;99.90;;;15.15;77.56;100933.28;5114992;28;20183;-69
2021/09/18 00:23:19;;;;;;;4.63;1.20;;;14.60;99.90;;;15.14;77.52;100932.41;5114692;28;20679;-69
2021/09/18 00:25:46;;;;;;;3.95;1.30;;;14.60;99.90;;;15.13;78.04;100935.13;5113168;28;20281;-70
2021/09/18 00:28:13;;;;;;;3.33;1.23;;;14.60;99.90;;;15.07;78.24;100931.88;5114431;28;20183;-69
2021/09/18 00:30:41;;;;;;;2.35;1.13;;;14.60;99.90;;;15.02;78.38;100933.03;5114037;28;20674;-70
2021/09/18 00:33:08;;;;;;;1.90;1.10;;;14.60;99.90;;;15.02;78.70;100925.13;5113892;28;20195;-69
2021/09/18 00:35:34;;;;;;;4.55;1.30;;;14.60;99.90;;;15.03;78.64;100924.22;5112642;28;20218;-68
2021/09/18 00:38:01;;;;;;;3.15;1.10;;;14.50;99.90;;;15.03;78.86;100925.09;5113826;28;20187;-69
2021/09/18 00:40:28;;;;;;;2.50;1.10;;;14.60;99.90;;;15.05;78.87;100933.75;5113690;28;20662;-70
2021/09/18 00:42:55;;;;;;;2.65;0.90;;;14.60;99.90;;;15.05;79.10;100939.00;5114016;28;20213;-70
2021/09/18 00:45:22;;;;;;;3.15;1.17;;;14.60;99.90;;;15.06;78.67;100939.88;5114000;28;20178;-70
2021/09/18 00:47:50;;;;;;;5.10;1.25;;;14.60;99.90;;;15.04;78.60;100939.09;5113802;28;20199;-69
2021/09/18 00:50:17;;;;;;;5.60;1.42;;;14.50;99.90;;;15.00;78.83;100938.41;5114368;28;20179;-69
2021/09/18 00:52:43;;;;;;;4.65;1.60;;;14.50;99.90;;;15.00;78.81;100940.22;5114497;28;20267;-69
2021/09/18 00:55:11;;;;;;;6.50;1.67;;;14.50;99.90;;;14.99;79.03;100941.13;5131273;27;20187;-70
2021/09/18 00:57:38;;;;;;;3.97;1.30;;;14.50;99.90;;;14.98;79.15;100942.06;5113198;28;20190;-69
2021/09/18 01:00:08;;;;;;;3.13;1.20;;;14.50;99.90;;;14.99;79.38;100949.88;5112864;28;20283;-70
2021/09/18 01:02:35;;;;;;;4.43;1.50;;;14.50;99.90;;;14.96;79.31;100946.56;5112589;28;20289;-69
2021/09/18 01:05:05;;;;;;;4.30;1.55;;;14.50;99.90;;;14.91;79.42;100946.81;5112110;28;20191;-70
2021/09/18 01:07:31;;;;;;;5.20;1.23;;;14.50;99.90;;;14.92;79.47;100943.22;5113893;28;20187;-70
2021/09/18 01:10:00;;;;;;;4.10;1.30;;;14.50;99.90;;;14.93;79.64;100939.69;5113819;28;20192;-70
2021/09/18 01:12:27;;;;;;;3.30;1.40;;;14.50;99.90;;;14.93;79.78;100933.53;5113510;28;20203;-71
2021/09/18 01:14:54;;;;;;;5.20;1.58;;;14.40;99.90;;;14.90;79.78;100945.06;5113301;28;20183;-70
2021/09/18 01:17:21;;;;;;;4.93;1.35;;;14.40;99.90;;;14.90;79.90;100947.72;5114122;28;20187;-70
2021/09/18 01:19:47;;;;;;;4.63;1.35;;;14.40;99.90;;;14.90;79.57;100939.81;5116509;28;20179;-70
2021/09/18 01:22:20;;;;;;;4.80;1.50;;;14.40;99.90;;;14.90;80.22;100934.53;5119500;28;20260;-71
2021/09/18 01:24:48;;;;;;;4.00;1.42;;;14.40;99.90;;;14.88;80.08;100936.44;5124039;28;20214;-70
2021/09/18 01:27:15;;;;;;;2.97;1.25;;;14.40;99.90;;;14.88;80.26;100936.44;5128437;28;20212;-72
2021/09/18 01:29:45;;;;;;;4.65;1.30;;;14.40;99.90;;;14.86;80.18;100935.66;5114440;28;20186;-70
2021/09/18 01:32:17;;;;;;;2.42;1.10;;;14.40;99.90;;;14.84;80.40;100926.97;5112588;28;20256;-70
2021/09/18 01:34:44;;;;;;;5.60;1.20;;;14.40;99.90;;;14.81;80.50;100937.66;5112900;28;20659;-70
2021/09/18 01:37:11;;;;;;;3.33;1.30;;;14.30;99.90;;;14.83;80.54;100934.94;5111506;28;20591;-70
2021/09/18 01:39:37;;;;;;;3.13;1.42;;;14.30;99.90;;;14.83;80.68;100932.31;5112658;28;20601;-70
2021/09/18 01:42:06;;;;;;;3.63;1.17;;;14.30;99.90;;;14.86;80.83;100932.16;5112897;28;20621;-68
2021/09/18 01:44:32;;;;;;;5.13;1.40;;;14.30;99.90;;;14.85;80.67;100933.91;5113009;28;20217;-68
2021/09/18 01:46:59;;;;;;;5.93;1.45;;;14.40;99.90;;;14.83;80.83;100938.44;5112526;28;20191;-72
2021/09/18 01:49:28;;;;;;;5.20;1.15;;;14.40;99.90;;;14.86;80.75;100937.41;5111067;28;20190;-69
2021/09/18 01:51:57;;;;;;;3.25;1.20;;;14.40;99.90;;;14.86;80.78;100922.47;5112276;28;20205;-70
2021/09/18 01:54:28;;;;;;;4.75;1.30;;;14.40;99.90;;;14.87;80.45;100932.06;5111097;28;20723;-70
2021/09/18 01:56:55;;;;;;;4.10;1.10;;;14.40;99.90;;;14.88;81.08;100917.13;5128283;27;20248;-70
2021/09/18 01:59:23;;;;;;;6.38;1.30;;;14.40;99.90;;;14.90;80.88;100925.81;5112220;28;20551;-70
2021/09/18 02:01:49;;;;;;;3.67;1.40;;;14.40;99.90;;;14.90;80.70;100921.34;5110855;28;20215;-70
2021/09/18 02:04:16;;;;;;;2.58;1.17;;;14.40;99.90;;;14.87;81.04;100924.16;5112192;28;20624;-70
2021/09/18 02:06:43;;;;;;;2.47;1.02;;;14.40;99.90;;;14.88;80.89;100925.03;5112321;28;20187;-69
2021/09/18 02:09:10;;;;;;;6.05;1.20;;;14.40;99.90;;;14.86;80.87;100926.88;5110732;28;20203;-70
2021/09/18 02:11:36;;;;;;;2.67;1.08;;;14.40;99.90;;;14.85;81.28;100933.91;5110674;28;20206;-70
2021/09/18 02:14:03;;;;;;;3.05;1.25;;;14.40;99.90;;;14.85;81.07;100931.28;5112145;28;20194;-70
2021/09/18 02:16:31;;;;;;;4.53;1.15;;;14.40;99.90;;;14.86;81.13;100930.38;5112067;28;20720;-70
2021/09/18 02:18:58;;;;;;;2.92;1.08;;;14.40;99.90;;;14.86;81.27;100929.50;5110817;28;20315;-70
2021/09/18 02:21:25;;;;;;;3.90;1.15;;;14.40;99.90;;;14.88;81.09;100936.44;5110320;28;20218;-70
2021/09/18 02:23:52;;;;;;;3.42;1.20;;;14.40;99.90;;;14.87;81.21;100926.78;5110530;28;20629;-71
2021/09/18 02:26:18;;;;;;;2.78;1.17;;;14.40;99.90;;;14.88;81.52;100931.16;5110580;28;20196;-70
2021/09/18 02:28:45;;;;;;;6.00;1.20;;;14.40;99.90;;;14.89;81.32;100930.22;5111700;28;20194;-70
2021/09/18 02:31:12;;;;;;;3.53;1.20;;;14.40;99.90;;;14.91;81.55;100935.41;5111638;28;20187;-70
2021/09/18 02:33:40;;;;;;;3.33;1.10;;;14.40;99.90;;;14.90;81.53;100926.63;5110400;28;20190;-70
2021/09/18 02:36:07;;;;;;;4.55;1.38;;;14.40;99.90;;;14.91;81.60;100930.13;5127597;28;20202;-71
2021/09/18 02:38:34;;;;;;;3.50;1.27;;;14.40;99.90;;;14.91;81.36;100909.91;5112187;28;20232;-70
2021/09/18 02:41:00;;;;;;;5.10;1.58;;;14.40;99.90;;;14.90;81.62;100912.63;5111412;28;20191;-69
2021/09/18 02:43:27;;;;;;;4.65;1.38;;;14.40;99.90;;;14.90;81.62;100921.34;5110673;28;20244;-69
2021/09/18 02:45:55;;;;;;;2.97;1.08;;;14.40;99.90;;;14.89;81.87;100918.81;5111808;28;20683;-70
2021/09/18 02:48:22;;;;;;;3.58;1.23;;;14.40;99.90;;;14.90;82.06;100920.53;5111585;28;20186;-69
2021/09/18 02:50:50;;;;;;;5.35;1.40;;;14.40;99.90;;;14.91;81.82;100912.53;5110212;28;20655;-70
2021/09/18 02:53:17;;;;;;;6.40;1.42;;;14.40;99.90;;;14.93;81.77;100910.69;5112064;28;20230;-70
2021/09/18 02:55:44;;;;;;;5.82;1.50;;;14.40;99.90;;;14.91;81.73;100912.53;5111700;28;20716;-69
2021/09/18 02:58:10;;;;;;;5.90;1.50;;;14.40;99.90;;;14.88;81.89;100915.34;5111628;28;20183;-70
2021/09/18 03:00:37;;;;;;;6.45;1.58;;;14.40;99.90;;;14.88;81.92;100906.56;5109941;28;20195;-70
2021/09/18 03:03:04;;;;;;;5.55;1.60;;;14.40;99.90;;;14.88;81.98;100907.44;5110135;28;20219;-71
2021/09/18 03:05:31;;;;;;;7.28;1.85;;;14.40;99.90;;;14.88;82.30;100914.47;5110200;28;20214;-70
2021/09/18 03:07:59;;;;;;;3.72;1.40;;;14.40;99.90;;;14.84;82.23;100921.69;5110353;28;20191;-69
2021/09/18 03:10:25;;;;;;;4.15;1.40;;;14.40;99.90;;;14.80;82.45;100917.50;5110023;28;20708;-70
2021/09/18 03:12:52;;;;;;;3.83;1.42;;;14.30;99.90;;;14.81;82.25;100919.22;5110454;28;20207;-69
2021/09/18 03:15:19;;;;;;;4.65;1.50;;;14.40;99.90;;;14.81;82.23;100924.50;5110263;28;20194;-70
2021/09/18 03:17:46;;;;;;;4.95;1.70;;;14.30;99.90;;;14.80;82.50;100921.94;5110151;28;20183;-70
2021/09/18 03:20:13;;;;;;;5.40;1.48;;;14.40;99.90;;;14.78;82.40;100919.38;5111429;28;20187;-70
2021/09/18 03:22:40;;;;;;;3.63;1.50;;;14.30;99.90;;;14.77;82.71;100917.66;5111245;28;20203;-70
2021/09/18 03:25:10;;;;;;;3.85;1.50;;;14.30;99.90;;;14.77;82.70;100912.41;5110885;28;20272;-69
2021/09/18 03:27:37;;;;;;;3.90;1.52;;;14.30;99.90;;;14.76;82.66;100912.47;5114710;28;20421;-70
2021/09/18 03:30:05;;;;;;;5.43;1.63;;;14.30;99.90;;;14.78;83.00;100911.47;5115134;28;20191;-69
2021/09/18 03:32:32;;;;;;;4.32;1.58;;;14.30;99.90;;;14.74;82.87;100909.91;5113597;28;20236;-69
2021/09/18 03:34:59;;;;;;;5.65;1.75;;;14.30;99.90;;;14.73;83.36;100912.63;5113724;28;20260;-69
2021/09/18 03:37:26;;;;;;;5.55;1.60;;;14.20;99.90;;;14.72;83.20;100909.16;5113735;28;20712;-68
2021/09/18 03:39:53;;;;;;;5.43;1.60;;;14.30;99.90;;;14.71;83.41;100906.59;5113441;28;20191;-70
2021/09/18 03:42:21;;;;;;;5.88;1.70;;;14.30;99.90;;;14.69;83.52;100906.66;5113482;28;20210;-70
2021/09/18 03:44:48;;;;;;;5.43;1.50;;;14.30;99.90;;;14.71;83.47;100915.34;5113452;28;20222;-70
2021/09/18 03:47:16;;;;;;;4.40;1.67;;;14.20;99.90;;;14.72;83.68;100911.78;5114626;28;20206;-70
2021/09/18 03:49:43;;;;;;;4.03;1.67;;;14.30;99.90;;;14.72;83.80;100906.50;5114596;28;20195;-70
2021/09/18 03:52:09;;;;;;;4.75;1.40;;;14.30;99.90;;;14.73;83.79;100902.09;5113236;28;20588;-70
2021/09/18 03:54:36;;;;;;;6.10;1.85;;;14.30;99.90;;;14.75;83.96;100914.25;5114420;28;20186;-70
2021/09/18 03:57:03;;;;;;;5.15;1.77;;;14.30;99.90;;;14.77;83.63;100909.75;5114438;28;20187;-70
2021/09/18 03:59:31;;;;;;;4.93;1.42;;;14.30;99.90;;;14.76;83.69;100910.69;5113029;28;20565;-70
2021/09/18 04:01:58;;;;;;;3.70;1.48;;;14.30;99.90;;;14.72;83.76;100913.56;5114095;28;20225;-70
2021/09/18 04:04:25;;;;;;;5.72;1.70;;;14.30;99.90;;;14.71;84.37;100915.34;5113058;28;20214;-69
2021/09/18 04:06:52;;;;;;;4.28;1.67;;;14.20;99.90;;;14.69;84.20;100917.22;5113064;28;20543;-70
2021/09/18 04:09:19;;;;;;;6.13;1.70;;;14.20;99.90;;;14.71;84.25;100918.00;5113211;28;20244;-70
2021/09/18 04:11:46;;;;;;;4.47;1.67;;;14.20;99.90;;;14.69;84.22;100908.44;5114187;28;20580;-69
2021/09/18 04:14:13;;;;;;;5.13;1.60;;;14.20;99.90;;;14.70;84.35;100904.91;5112992;28;20655;-70
2021/09/18 04:16:41;;;;;;;3.38;1.40;;;14.20;99.90;;;14.69;84.89;100908.44;5113000;28;20194;-68
2021/09/18 04:19:08;;;;;;;7.20;1.67;;;14.20;99.90;;;14.67;84.85;100899.75;5112835;28;20186;-70
2021/09/18 04:21:34;;;;;;;7.57;1.92;;;14.20;99.90;;;14.67;85.08;100910.28;5112591;28;20221;-70
2021/09/18 04:24:01;;;;;;;5.38;1.70;;;14.20;99.90;;;14.65;85.18;100906.91;5113877;28;20610;-69
2021/09/18 04:26:28;;;;;;;8.38;2.22;;;14.20;99.90;;;14.65;85.19;100907.75;5112680;28;20191;-70
2021/09/18 04:28:55;;;;;;;6.03;1.90;;;14.20;99.90;;;14.64;85.53;100907.81;5113602;28;20190;-70
2021/09/18 04:31:21;;;;;;;5.47;1.90;;;14.20;99.90;;;14.61;86.03;100906.22;5112397;28;20194;-68
2021/09/18 04:33:50;;;;;;;6.43;1.90;;;14.20;99.90;;;14.61;86.19;100911.47;5112729;28;20187;-70
2021/09/18 04:36:16;;;;;;;6.88;2.10;;;14.20;99.90;;;14.59;86.12;100913.34;5112006;28;20187;-70
2021/09/18 04:38:43;;;;;;;5.95;1.95;;;14.20;99.90;;;14.59;86.38;100907.22;5112204;28;20187;-70
2021/09/18 04:41:11;;;;;;;6.97;2.10;;;14.20;99.90;;;14.53;86.62;100903.13;5113606;28;20187;-68
2021/09/18 04:43:39;;;;;;;6.40;2.28;;;14.10;99.90;;;14.52;86.91;100909.31;5113756;28;20601;-68
2021/09/18 04:46:06;;;;;;;8.45;2.60;;;14.10;99.90;;;14.53;87.01;100908.41;5113604;28;20210;-70
2021/09/18 04:48:33;;;;;;;8.18;2.70;;;14.10;99.90;;;14.49;87.21;100901.56;5113992;28;20183;-70
2021/09/18 04:51:02;;;;;;;6.95;2.40;;;14.10;99.90;;;14.48;87.38;100910.41;5113122;28;20191;-70
2021/09/18 04:53:29;;;;;;;7.03;2.50;;;14.10;99.90;;;14.44;88.21;100911.47;5126051;28;20183;-71
2021/09/18 04:55:55;;;;;;;7.25;2.38;;;14.00;99.90;;;14.42;88.12;100910.69;5122166;28;20190;-70
2021/09/18 04:58:22;;;;;;;8.68;2.50;;;14.00;99.90;;;14.44;88.54;100918.53;5126324;28;20179;-70
2021/09/18 05:00:49;;;;;;;7.60;2.67;;;14.00;99.90;;;14.46;88.67;100916.66;5111783;28;20237;-69
2021/09/18 05:03:16;;;;;;;7.72;2.63;;;14.00;99.90;;;14.45;88.92;100913.16;5111950;28;20233;-69
2021/09/18 05:05:43;;;;;;;7.00;2.58;;;14.00;99.90;;;14.45;89.07;100923.72;5128943;27;20222;-70
2021/09/18 05:08:12;;;;;;;8.45;2.90;;;14.00;99.90;;;14.46;88.98;100922.78;5112020;28;20258;-69
2021/09/18 05:10:39;;;;;;;9.98;3.20;;;14.00;99.90;;;14.46;89.07;100927.19;5112895;28;20222;-70
2021/09/18 05:13:05;;;;;;;7.85;2.70;;;14.00;99.90;;;14.42;89.64;100933.53;5113031;28;20290;-69
2021/09/18 05:15:32;;;;;;;9.75;3.28;;;14.00;99.90;;;14.40;89.67;100927.53;5113082;28;20647;-70
2021/09/18 05:17:59;;;;;;;10.15;3.15;;;14.00;99.90;;;14.38;90.22;100922.34;5113036;28;20187;-70
2021/09/18 05:20:26;;;;;;;8.07;3.03;;;13.90;99.90;;;14.36;90.27;100929.44;5112888;28;20190;-69
2021/09/18 05:22:53;;;;;;;11.35;3.17;;;13.90;99.90;;;14.34;90.60;100922.53;5112724;28;20255;-70
2021/09/18 05:25:21;;;;;;;11.18;3.33;;;13.90;99.90;;;14.32;90.95;100934.91;5111617;28;20574;-70
2021/09/18 05:27:49;;;;;;;9.40;3.17;;;13.90;99.90;;;14.37;91.25;100931.16;5112455;28;20190;-69
2021/09/18 05:30:16;;;;;;;9.57;3.00;;;13.90;99.90;;;14.41;91.64;100930.06;5113927;28;20187;-70
2021/09/18 05:32:43;;;;;;;8.25;2.90;;;13.90;99.90;;;14.41;91.46;100937.97;5112107;28;20207;-70
2021/09/18 05:35:10;;;;;;;7.47;2.90;;;13.90;99.90;;;14.40;91.65;100938.88;5112820;28;20190;-70
2021/09/18 05:37:37;;;;;;;8.13;2.75;;;13.90;99.90;;;14.40;91.55;100938.88;5112624;28;20187;-70
2021/09/18 05:40:06;;;;;;;7.18;2.80;;;13.90;99.90;;;14.40;91.66;100943.31;5112617;28;20208;-70
2021/09/18 05:42:34;;;;;;;8.48;2.78;;;14.00;99.90;;;14.43;91.88;100951.06;5112427;28;20215;-70
2021/09/18 05:45:00;;;;;;;8.95;2.95;;;13.90;99.90;;;14.43;91.67;100954.56;5111185;28;20209;-70
2021/09/18 05:47:27;;;;;;;7.75;2.75;;;14.00;99.90;;;14.43;91.97;100943.16;5112747;28;20182;-70
2021/09/18 05:49:54;;;;;;;7.38;2.83;;;14.00;99.90;;;14.42;91.74;100950.19;5128095;27;20601;-70
2021/09/18 05:52:21;;;;;;;8.73;3.00;;;14.00;99.90;;;14.43;91.92;100948.44;5112408;28;20202;-71
2021/09/18 05:54:47;;;;;;;9.25;2.90;;;13.90;99.90;;;14.44;92.15;100942.22;5112661;28;20655;-70
2021/09/18 05:57:14;;;;;;;6.07;2.20;;;13.90;99.90;;;14.42;91.99;100950.19;5112402;28;20212;-70
2021/09/18 05:59:42;;;;;;;6.78;2.38;;;14.00;99.90;;;14.43;92.31;100944.03;5110817;28;20186;-70
2021/09/18 06:02:09;;;;;;;6.57;2.50;;;14.00;99.90;;;14.44;92.29;100945.72;5110711;28;20210;-69
2021/09/18 06:04:36;;;;;;;7.88;2.40;;;14.00;99.90;;;14.47;92.49;100957.84;5112140;28;20210;-70
2021/09/18 06:07:03;;;;;;;8.68;2.58;;;14.00;99.90;;;14.49;92.20;100963.91;5110829;28;20191;-69
2021/09/18 06:09:30;;;;;;;7.38;2.35;;;14.00;99.90;;;14.51;92.25;100949.75;5110726;28;20198;-70
2021/09/18 06:11:56;;;;;;;8.15;2.58;;;14.10;99.90;;;14.55;92.25;100953.09;5110790;28;20211;-70
2021/09/18 06:14:23;;;;;;;10.13;2.72;;;14.10;99.90;;;14.56;92.24;100955.66;5110801;28;20200;-70
2021/09/18 06:16:51;;;;;;;7.15;2.60;;;14.10;99.90;;;14.56;91.88;100950.38;5112234;28;20822;-70
2021/09/18 06:19:19;;;;;;;7.20;2.65;;;14.10;99.90;;;14.57;92.29;100954.69;5112077;28;20597;-67
2021/09/18 06:21:46;;;;;;;6.45;2.15;;;14.10;99.90;;;14.54;92.01;100949.59;5112017;28;20585;-69
2021/09/18 06:24:14;;;;;;;8.40;2.95;;;14.00;99.90;;;14.54;92.61;100957.50;5110794;28;20229;-70
2021/09/18 06:26:41;;;;;;;7.88;2.15;;;14.00;99.90;;;14.55;92.55;100953.91;5110543;28;20593;-69
2021/09/18 06:29:09;;;;;;;7.63;2.58;;;14.00;99.90;;;14.55;92.77;100961.00;5127254;28;20220;-69
2021/09/18 06:31:36;;;;;;;8.00;2.58;;;14.00;99.90;;;14.54;92.55;100962.75;5110502;28;20219;-69
2021/09/18 06:34:04;;;;;;;8.00;2.72;;;14.00;99.90;;;14.56;92.92;100965.31;5110599;28;20194;-69
2021/09/18 06:36:31;;;;;;;7.22;2.60;;;14.00;99.90;;;14.58;92.64;100974.88;5111932;28;20216;-69
2021/09/18 06:38:58;;;;;;;6.03;2.03;;;14.00;99.90;;;14.60;92.96;100972.97;5111978;28;20538;-70
2021/09/18 06:41:25;;;;;;;7.97;2.80;;;14.10;99.90;;;14.58;93.31;100964.34;5110217;28;20259;-70
2021/09/18 06:43:52;;;;;;;7.60;2.60;;;14.10;99.90;;;14.60;93.24;100972.16;5110572;28;20643;-70
2021/09/18 06:46:18;;;;;;;8.25;2.78;;;14.10;99.90;;;14.60;93.49;100982.69;5110505;28;20674;-70
2021/09/18 06:48:45;;;;;;;7.90;2.92;;;14.10;99.90;;;14.60;93.52;100983.53;5127685;28;20187;-70
2021/09/18 06:51:15;;;;;;;9.55;3.08;;;14.20;99.90;;;14.63;93.88;100983.38;5111669;28;20190;-68
2021/09/18 06:53:41;;;;;;;12.02;3.35;;;14.20;99.90;;;14.68;93.71;100984.00;5111843;28;20183;-70
2021/09/18 06:56:08;;;;;;;9.73;3.15;;;14.20;99.90;;;14.71;93.74;100977.72;5110570;28;20240;-70
2021/09/18 06:58:35;;;;;;;10.60;3.53;;;14.30;99.90;;;14.73;93.59;100978.50;5127558;28;20195;-70
2021/09/18 07:01:02;;;;;;;7.50;2.80;;;14.30;99.90;;;14.75;93.78;100977.47;5113708;28;20711;-70
2021/09/18 07:03:28;;;;;;;9.27;3.20;;;14.40;99.90;;;14.80;94.19;100988.63;5115823;28;20183;-69
2021/09/18 07:05:55;;;;;;;13.00;4.10;;;14.40;99.90;;;14.86;93.86;100990.13;5115942;28;20578;-69
2021/09/18 07:08:23;;;;;;;9.07;3.70;;;14.50;99.90;;;14.90;93.90;100995.16;5131580;27;20286;-70
2021/09/18 07:10:50;;;;;;;9.27;3.35;;;14.50;99.90;;;14.92;94.07;100990.66;5114174;28;20187;-70
2021/09/18 07:13:17;;;;;;;11.27;3.50;;;14.60;99.90;;;14.92;93.64;100989.81;5114031;28;20210;-69
2021/09/18 07:15:43;;;;;;;8.65;3.22;;;14.60;99.90;;;14.93;93.89;100987.13;5115467;28;20240;-69
2021/09/18 07:18:10;;;;;;;8.52;3.42;;;14.60;99.90;;;14.93;93.81;100997.66;5115370;28;20202;-71
2021/09/18 07:20:37;;;;;;;8.45;3.58;;;14.60;99.90;;;14.95;94.16;101001.03;5115296;28;20248;-69
2021/09/18 07:23:04;;;;;;;10.82;3.42;;;14.60;99.90;;;14.99;93.98;100997.34;5115267;28;20627;-69
2021/09/18 07:25:32;;;;;;;9.77;3.38;;;14.70;99.90;;;15.03;94.18;100996.25;5113892;28;20207;-70
2021/09/18 07:27:59;;;;;;;9.00;3.38;;;14.70;99.90;;;15.08;94.11;101001.28;5113560;28;20605;-70
2021/09/18 07:30:26;;;;;;;9.60;3.58;;;14.70;99.90;;;15.13;94.10;101008.94;5113885;28;20193;-69
2021/09/18 07:32:53;;;;;;;9.63;4.03;;;14.80;99.90;;;15.16;93.93;101006.16;5113852;28;20217;-70
2021/09/18 07:35:20;;;;;;;8.88;3.58;;;14.80;99.90;;;15.20;93.96;101002.44;5114138;28;20220;-70
2021/09/18 07:37:46;;;;;;;10.45;3.70;;;14.90;99.90;;;15.28;94.31;101013.44;5130709;27;20643;-70
2021/09/18 07:40:14;;;;;;;9.73;3.60;;;14.90;99.90;;;15.38;94.08;101009.38;5114791;28;20187;-70
2021/09/18 07:42:43;;;;;;;8.23;3.50;;;15.10;99.90;;;15.46;94.03;101008.06;5114792;28;20701;-70
2021/09/18 07:45:11;;;;;;;10.00;3.72;;;15.20;99.90;;;15.56;93.66;101013.72;5113528;28;20630;-70
2021/09/18 07:47:40;;;;;;;9.23;3.35;;;15.30;99.90;;;15.65;93.56;101008.81;5114832;28;20187;-71
2021/09/18 07:50:08;;;;;;;9.45;3.25;;;15.40;99.90;;;15.73;93.49;101014.53;5114653;28;20193;-70
2021/09/18 07:52:35;;;;;;;8.23;2.92;;;15.50;99.90;;;15.81;93.08;101019.38;5113225;28;20237;-70
2021/09/18 07:55:02;;;;;;;8.82;3.22;;;15.50;99.90;;;15.86;93.30;101012.06;5113457;28;20195;-69
2021/09/18 07:57:28;;;;;;;8.75;3.17;;;15.50;99.90;;;15.92;93.16;101017.03;5113428;28;20209;-70
2021/09/18 07:59:56;;;;;;;10.18;3.00;;;15.60;99.90;;;15.97;93.06;101020.25;5113119;28;20597;-70
2021/09/18 08:02:23;;;;;;;8.85;3.10;;;15.60;99.90;;;16.02;93.37;101018.22;5114453;28;20199;-70
2021/09/18 08:04:50;;;;;;;7.95;2.85;;;15.70;99.90;;;16.09;93.14;101016.94;5114479;28;20206;-69
2021/09/18 08:07:20;;;;;;;7.30;2.85;;;15.70;99.90;;;16.17;92.80;101022.66;5114614;28;20210;-70
2021/09/18 08:09:48;;;;;;;7.70;2.92;;;15.80;99.90;;;16.22;92.59;101023.25;5114321;28;20190;-70
2021/09/18 08:12:15;;;;;;;6.88;2.50;;;15.90;99.90;;;16.25;92.93;101023.94;5130088;27;20279;-69
2021/09/18 08:14:42;;;;;;;8.43;2.47;;;15.90;99.90;;;16.33;92.42;101034.06;5114465;28;20655;-70
2021/09/18 08:17:10;;;;;;;8.35;2.42;;;16.00;99.90;;;16.41;92.17;101026.53;5115139;28;20194;-69
2021/09/18 08:19:37;;;;;;;5.93;2.20;;;16.10;99.90;;;16.50;92.14;101031.34;5113364;28;20202;-69
2021/09/18 08:22:04;;;;;;;7.78;2.25;;;16.20;99.90;;;16.56;91.71;101028.34;5115814;28;20207;-69
2021/09/18 08:24:31;;;;;;;6.55;2.33;;;16.30;99.90;;;16.61;91.81;101034.22;5124688;28;20229;-70
2021/09/18 08:26:57;;;;;;;5.68;2.20;;;16.40;99.90;;;16.67;91.47;101027.75;5125990;28;20283;-69
2021/09/18 08:29:24;;;;;;;6.25;2.10;;;16.40;99.90;;;16.71;91.12;101035.41;5128141;28;20183;-70
2021/09/18 08:31:51;;;;;;;9.30;2.67;;;16.50;99.90;;;16.73;91.11;101033.53;5113974;28;20207;-69
2021/09/18 08:34:19;;;;;;;6.13;2.03;;;16.50;99.90;;;16.78;90.69;101036.75;5114434;28;20678;-69
2021/09/18 08:36:46;;;;;;;5.40;1.58;;;16.60;99.90;;;16.83;90.47;101037.34;5114209;28;20178;-70
2021/09/18 08:39:13;;;;;;;4.75;1.85;;;16.60;99.90;;;16.87;90.30;101035.38;5112693;28;20230;-69
2021/09/18 08:41:45;;;;;;;5.55;1.60;;;16.60;99.90;;;16.92;90.23;101031.53;5113592;28;20567;-69
2021/09/18 08:44:12;;;;;;;5.38;1.88;;;16.70;99.90;;;16.96;89.93;101037.50;5112632;28;20278;-70
2021/09/18 08:46:40;;;;;;;4.07;1.65;;;16.70;99.90;;;17.00;89.61;101053.09;5115079;28;20207;-69
2021/09/18 08:49:09;;;;;;;4.65;1.40;;;16.70;99.90;;;17.01;89.68;101038.06;5112553;28;20190;-69
2021/09/18 08:51:40;;;;;;;5.55;1.60;;;16.80;99.90;;;16.99;89.40;101040.81;5112293;28;20214;-69
2021/09/18 08:54:08;;;;;;;4.13;1.38;;;16.70;99.90;;;16.96;89.09;101050.72;5113859;28;20262;-69
2021/09/18 08:56:35;;;;;;;5.07;1.50;;;16.60;99.90;;;16.90;89.25;101054.56;5112210;28;20547;-70
2021/09/18 08:59:02;;;;;;;5.53;1.60;;;16.40;99.90;;;16.82;89.57;101050.66;5112421;28;20240;-70
2021/09/18 09:01:29;;;;;;;7.28;2.50;;;16.30;99.90;;;16.79;90.02;101049.06;5111949;28;20694;-70
2021/09/18 09:03:58;;;;;;;7.25;1.80;;;16.20;99.90;;;16.77;90.36;101055.34;5112148;28;20232;-70
2021/09/18 09:06:26;;;;;;;7.15;1.70;;;16.10;99.90;;;16.76;90.95;101053.66;5111967;28;20284;-70
2021/09/18 09:09:00;;;;;;;6.97;1.70;;;16.00;99.90;;;16.74;91.30;101048.47;5111887;28;20277;-70
2021/09/18 09:11:29;;;;;;;5.57;1.60;;;16.00;99.90;;;16.78;91.44;101049.97;5111791;28;20275;-70
2021/09/18 09:14:01;;;;;;;6.30;1.63;;;16.00;99.90;;;16.86;91.69;101052.19;5112161;28;20289;-69
2021/09/18 09:16:31;;;;;;;6.45;2.03;;;16.10;99.90;;;16.97;91.91;101052.41;5113229;28;20565;-70
2021/09/18 09:18:59;;;;;;;5.93;1.55;;;16.20;99.90;;;17.10;91.75;101042.81;5113063;28;20183;-70
2021/09/18 09:21:29;;;;;;;11.00;3.45;;;16.30;99.90;;;17.19;91.34;101047.56;5111444;28;20218;-70
2021/09/18 09:24:09;;;;;;;9.65;2.83;;;16.50;99.90;;;17.20;91.17;101058.03;5112352;28;20198;-69
2021/09/18 09:26:39;;;;;;;5.43;1.67;;;16.50;99.90;;;17.11;90.49;101060.41;5112869;28;20214;-70
2021/09/18 09:29:07;;;;;;;7.60;1.60;;;16.40;99.90;;;16.86;90.57;101078.63;5112942;27;20210;-69
2021/09/18 09:31:38;;;;;;;4.10;1.20;;;16.30;99.90;;;16.57;91.28;101068.84;5111493;28;20215;-68
2021/09/18 09:34:11;;;;;;;3.38;1.25;;;16.00;99.90;;;16.33;93.29;101065.75;5112898;28;20197;-69
2021/09/18 09:36:43;;;;;;;9.57;1.98;;;15.80;99.90;;;16.18;94.50;101072.75;5111511;28;20194;-68
2021/09/18 09:39:14;;;;;;;6.13;1.50;;;15.60;99.90;;;16.10;95.80;101074.09;5112564;28;20190;-69
2021/09/18 09:41:46;;;;;;;9.40;2.83;;;15.50;99.90;;;16.05;96.69;101074.34;5111107;28;20585;-69
2021/09/18 09:44:17;;;;;;;5.63;1.98;;;15.50;99.90;;;16.10;97.72;101076.75;5112713;28;20269;-69
2021/09/18 09:46:58;;;;;;;6.95;2.13;;;15.50;99.90;;;16.16;97.82;101077.25;5112533;28;20206;-66
2021/09/18 09:49:40;;;;;;;5.60;2.05;;;15.60;99.90;;;16.25;98.51;101081.19;5128229;27;20312;-67
2021/09/18 09:52:20;;;;;;;8.23;2.38;;;15.70;99.90;;;16.34;98.48;101078.03;5110943;28;20234;-69
2021/09/18 09:54:48;;;;;;;5.80;2.00;;;15.80;99.90;;;16.38;98.75;101084.03;5112497;28;20198;-69
2021/09/18 09:57:16;;;;;;;7.13;1.80;;;15.90;99.90;;;16.41;99.24;101086.47;5112045;28;20246;-69
2021/09/18 09:59:43;;;;;;;6.80;1.33;;;15.90;99.90;;;16.44;99.72;101087.16;5112291;28;20252;-69
2021/09/18 10:02:13;;;;;;;8.68;2.47;;;15.90;99.90;;;16.48;99.78;101088.72;5110986;28;20211;-69
2021/09/18 10:04:41;;;;;;;5.68;1.63;;;15.90;99.90;;;16.54;99.84;101087.53;5112340;28;20197;-70
2021/09/18 10:07:11;;;;;;;8.07;2.53;;;16.00;99.90;;;16.56;99.71;101077.72;5110723;28;20682;-70
2021/09/18 10:09:38;;;;;;;4.72;1.33;;;16.00;99.90;;;16.60;99.88;101090.69;5112195;28;20187;-69
2021/09/18 10:12:07;;;;;;;5.55;1.60;;;16.10;99.90;;;16.70;100.00;101091.88;5110810;28;20214;-70
2021/09/18 10:14:37;;;;;;;2.97;1.00;;;16.30;99.90;;;16.77;99.66;101082.66;5110994;28;20208;-69